createdAt,value
2023-10-06T00:05:50.331Z,97.17
2023-10-06T00:35:53.224Z,98.38
2023-10-06T01:05:57.120Z,97.13
2023-10-06T01:36:00.114Z,97.19
2023-10-06T02:06:04.269Z,96.87
2023-10-06T02:36:07.401Z,97.32
2023-10-06T03:06:10.429Z,98.04
2023-10-06T03:36:13.771Z,98.84
2023-10-06T04:06:17.323Z,98.94
2023-10-06T04:36:20.228Z,99.47
2023-10-06T05:06:24.300Z,100.00
2023-10-06T05:36:27.377Z,100.00
2023-10-06T06:06:30.395Z,100.00
2023-10-06T06:36:33.749Z,100.00
2023-10-06T07:06:37.751Z,100.00
2023-10-06T07:36:41.416Z,100.00
2023-10-06T08:06:44.812Z,100.00
2023-10-06T08:36:48.391Z,100.00
2023-10-06T09:06:51.595Z,99.82
2023-10-06T09:36:55.230Z,98.77
2023-10-06T10:06:58.831Z,97.36
2023-10-06T10:37:01.732Z,95.01
2023-10-06T11:07:06.517Z,92.44
2023-10-06T11:37:09.553Z,88.73
2023-10-06T12:07:12.675Z,87.50
2023-10-06T12:37:16.028Z,86.83
2023-10-06T13:07:19.328Z,89.19
2023-10-06T13:37:22.297Z,88.58
2023-10-06T14:07:25.821Z,84.84
2023-10-06T14:37:28.827Z,79.88
2023-10-06T15:07:32.682Z,81.06
2023-10-06T15:37:35.608Z,81.06
2023-10-06T16:07:40.749Z,82.12
2023-10-06T16:37:43.894Z,82.73
2023-10-06T17:07:48.532Z,84.21
2023-10-06T17:37:51.645Z,84.51
2023-10-06T18:07:55.587Z,83.86
2023-10-06T18:37:58.677Z,83.12
2023-10-06T19:08:02.956Z,81.37
2023-10-06T19:38:05.946Z,83.64
2023-10-06T20:08:09.612Z,82.35
2023-10-06T20:38:12.547Z,80.80
2023-10-06T21:08:16.544Z,79.12
2023-10-06T21:38:19.491Z,77.28
2023-10-06T22:08:23.546Z,75.75
2023-10-06T22:38:27.658Z,76.14
2023-10-06T23:08:30.904Z,75.53
2023-10-06T23:38:34.283Z,75.26
